sensor_id;sensor_type;location;lat;lon;timestamp;pressure;altitude;pressure_sealevel;temperature;humidity
83264;BME280;73156;50.988;11.034;2023-12-22T00:00:16;97282.91;;;22.44;41.01
83264;BME280;73156;50.988;11.034;2023-12-22T00:02:41;97280.56;;;22.46;40.94
83264;BME280;73156;50.988;11.034;2023-12-22T00:05:07;97273.81;;;22.38;41.06
83264;BME280;73156;50.988;11.034;2023-12-22T00:07:32;97274.50;;;22.44;40.96
83264;BME280;73156;50.988;11.034;2023-12-22T00:09:57;97273.31;;;22.36;41.52
83264;BME280;73156;50.988;11.034;2023-12-22T00:12:22;97279.91;;;22.40;41.03
83264;BME280;73156;50.988;11.034;2023-12-22T00:14:48;97276.94;;;22.37;41.23
83264;BME280;73156;50.988;11.034;2023-12-22T00:17:13;97275.25;;;22.36;41.38
83264;BME280;73156;50.988;11.034;2023-12-22T00:19:38;97282.19;;;22.30;41.79
83264;BME280;73156;50.988;11.034;2023-12-22T00:22:04;97279.72;;;22.28;41.38
83264;BME280;73156;50.988;11.034;2023-12-22T00:24:29;97280.38;;;22.34;41.56
83264;BME280;73156;50.988;11.034;2023-12-22T00:26:54;97276.06;;;22.28;41.64
83264;BME280;73156;50.988;11.034;2023-12-22T00:29:20;97287.47;;;22.31;41.63
83264;BME280;73156;50.988;11.034;2023-12-22T00:31:45;97283.66;;;22.36;41.32
83264;BME280;73156;50.988;11.034;2023-12-22T00:34:10;97287.66;;;22.43;40.87
83264;BME280;73156;50.988;11.034;2023-12-22T00:36:36;97304.22;;;22.62;40.82
83264;BME280;73156;50.988;11.034;2023-12-22T00:39:01;97282.22;;;22.38;40.85
83264;BME280;73156;50.988;11.034;2023-12-22T00:41:26;97283.66;;;22.36;41.36
83264;BME280;73156;50.988;11.034;2023-12-22T00:43:52;97277.28;;;22.44;41.23
83264;BME280;73156;50.988;11.034;2023-12-22T00:46:17;97281.38;;;22.38;41.25
83264;BME280;73156;50.988;11.034;2023-12-22T00:48:42;97280.03;;;22.27;41.52
83264;BME280;73156;50.988;11.034;2023-12-22T00:51:08;97287.59;;;22.26;41.62
83264;BME280;73156;50.988;11.034;2023-12-22T00:53:33;97271.63;;;22.27;41.37
83264;BME280;73156;50.988;11.034;2023-12-22T00:56:00;97270.00;;;22.43;41.01
83264;BME280;73156;50.988;11.034;2023-12-22T00:58:25;97270.19;;;22.38;41.28
83264;BME280;73156;50.988;11.034;2023-12-22T01:00:51;97270.19;;;22.38;41.06
83264;BME280;73156;50.988;11.034;2023-12-22T01:03:16;97265.72;;;22.37;41.29
83264;BME280;73156;50.988;11.034;2023-12-22T01:05:41;97262.13;;;22.45;41.15
83264;BME280;73156;50.988;11.034;2023-12-22T01:08:07;97262.13;;;22.45;41.06
83264;BME280;73156;50.988;11.034;2023-12-22T01:10:32;97283.59;;;22.50;40.72
83264;BME280;73156;50.988;11.034;2023-12-22T01:12:57;97270.50;;;22.36;40.81
83264;BME280;73156;50.988;11.034;2023-12-22T01:15:22;97286.63;;;22.31;41.17
83264;BME280;73156;50.988;11.034;2023-12-22T01:17:48;97291.41;;;22.30;41.70
83264;BME280;73156;50.988;11.034;2023-12-22T01:20:13;97292.88;;;22.28;41.18
83264;BME280;73156;50.988;11.034;2023-12-22T01:22:38;97303.97;;;22.33;41.18
83264;BME280;73156;50.988;11.034;2023-12-22T01:25:05;97310.84;;;22.27;41.57
83264;BME280;73156;50.988;11.034;2023-12-22T01:27:30;97300.81;;;22.26;41.40
83264;BME280;73156;50.988;11.034;2023-12-22T01:29:56;97314.81;;;22.26;41.39
83264;BME280;73156;50.988;11.034;2023-12-22T01:32:21;97316.63;;;22.22;41.44
83264;BME280;73156;50.988;11.034;2023-12-22T01:34:46;97311.97;;;22.17;41.01
83264;BME280;73156;50.988;11.034;2023-12-22T01:37:12;97313.50;;;22.23;41.60
83264;BME280;73156;50.988;11.034;2023-12-22T01:39:37;97326.16;;;22.21;41.30
83264;BME280;73156;50.988;11.034;2023-12-22T01:42:02;97238.31;;;21.69;41.47
83264;BME280;73156;50.988;11.034;2023-12-22T01:44:28;97323.66;;;22.19;41.44
83264;BME280;73156;50.988;11.034;2023-12-22T01:46:53;97336.66;;;22.15;41.46
83264;BME280;73156;50.988;11.034;2023-12-22T01:49:20;97327.47;;;22.15;41.33
83264;BME280;73156;50.988;11.034;2023-12-22T01:51:46;97315.78;;;22.21;41.35
83264;BME280;73156;50.988;11.034;2023-12-22T01:54:13;97337.34;;;22.21;41.30
83264;BME280;73156;50.988;11.034;2023-12-22T01:56:39;97332.91;;;22.20;40.92
83264;BME280;73156;50.988;11.034;2023-12-22T01:59:05;97329.28;;;22.19;41.56
83264;BME280;73156;50.988;11.034;2023-12-22T02:01:31;97346.44;;;22.18;41.35
83264;BME280;73156;50.988;11.034;2023-12-22T02:03:57;97345.91;;;22.16;41.21
83264;BME280;73156;50.988;11.034;2023-12-22T02:06:24;97357.16;;;22.24;41.02
83264;BME280;73156;50.988;11.034;2023-12-22T02:08:50;97353.50;;;22.24;41.09
83264;BME280;73156;50.988;11.034;2023-12-22T02:11:15;97339.34;;;22.20;41.26
83264;BME280;73156;50.988;11.034;2023-12-22T02:13:44;97316.75;;;22.17;41.43
83264;BME280;73156;50.988;11.034;2023-12-22T02:18:47;97338.06;;;22.35;40.92
83264;BME280;73156;50.988;11.034;2023-12-22T02:21:13;97336.59;;;22.29;40.69
83264;BME280;73156;50.988;11.034;2023-12-22T02:23:38;97344.09;;;22.20;41.48
83264;BME280;73156;50.988;11.034;2023-12-22T02:26:12;97355.00;;;22.21;41.12
83264;BME280;73156;50.988;11.034;2023-12-22T02:28:45;97338.34;;;22.25;41.10
83264;BME280;73156;50.988;11.034;2023-12-22T02:31:16;97332.28;;;22.31;41.07
83264;BME280;73156;50.988;11.034;2023-12-22T02:33:43;97328.84;;;22.34;40.83
83264;BME280;73156;50.988;11.034;2023-12-22T02:36:09;97323.81;;;22.14;40.98
83264;BME280;73156;50.988;11.034;2023-12-22T02:38:35;97353.38;;;22.37;40.26
83264;BME280;73156;50.988;11.034;2023-12-22T02:41:02;97345.63;;;22.26;40.70
83264;BME280;73156;50.988;11.034;2023-12-22T02:43:28;97338.69;;;22.23;41.01
83264;BME280;73156;50.988;11.034;2023-12-22T02:45:54;97342.16;;;22.20;40.86
83264;BME280;73156;50.988;11.034;2023-12-22T02:48:19;97327.63;;;22.18;40.97
83264;BME280;73156;50.988;11.034;2023-12-22T02:50:44;97322.38;;;22.25;40.68
83264;BME280;73156;50.988;11.034;2023-12-22T02:53:10;97320.53;;;22.21;40.80
83264;BME280;73156;50.988;11.034;2023-12-22T02:55:35;97345.09;;;22.24;40.69
83264;BME280;73156;50.988;11.034;2023-12-22T02:58:00;97322.22;;;22.30;40.43
83264;BME280;73156;50.988;11.034;2023-12-22T03:00:25;97342.84;;;22.34;40.53
83264;BME280;73156;50.988;11.034;2023-12-22T03:02:51;97347.78;;;22.37;40.45
83264;BME280;73156;50.988;11.034;2023-12-22T03:05:16;97360.94;;;22.28;40.53
83264;BME280;73156;50.988;11.034;2023-12-22T03:07:41;97357.63;;;22.26;40.57
83264;BME280;73156;50.988;11.034;2023-12-22T03:10:07;97364.06;;;22.27;40.73
83264;BME280;73156;50.988;11.034;2023-12-22T03:12:32;97365.28;;;22.34;40.35
83264;BME280;73156;50.988;11.034;2023-12-22T03:14:57;97366.28;;;22.38;40.31
83264;BME280;73156;50.988;11.034;2023-12-22T03:17:23;97361.78;;;22.29;40.13
83264;BME280;73156;50.988;11.034;2023-12-22T03:19:48;97377.75;;;22.28;40.37
83264;BME280;73156;50.988;11.034;2023-12-22T03:22:13;97361.78;;;22.29;40.51
83264;BME280;73156;50.988;11.034;2023-12-22T03:24:38;97351.22;;;22.26;40.47
83264;BME280;73156;50.988;11.034;2023-12-22T03:27:04;97326.94;;;22.13;40.44
83264;BME280;73156;50.988;11.034;2023-12-22T03:29:29;97348.22;;;22.22;40.43
83264;BME280;73156;50.988;11.034;2023-12-22T03:31:54;97354.72;;;22.31;40.36
83264;BME280;73156;50.988;11.034;2023-12-22T03:34:20;97384.31;;;22.24;40.64
83264;BME280;73156;50.988;11.034;2023-12-22T03:36:45;97410.94;;;22.43;40.25
83264;BME280;73156;50.988;11.034;2023-12-22T03:39:14;97411.28;;;22.42;39.90
83264;BME280;73156;50.988;11.034;2023-12-22T03:41:39;97427.22;;;22.33;40.02
83264;BME280;73156;50.988;11.034;2023-12-22T03:44:04;97434.28;;;22.30;40.44
83264;BME280;73156;50.988;11.034;2023-12-22T03:46:30;97430.41;;;22.40;40.09
83264;BME280;73156;50.988;11.034;2023-12-22T03:48:55;97428.28;;;22.45;39.91
83264;BME280;73156;50.988;11.034;2023-12-22T03:51:21;97427.91;;;22.47;39.70
83264;BME280;73156;50.988;11.034;2023-12-22T03:53:46;97429.03;;;22.37;40.01
83264;BME280;73156;50.988;11.034;2023-12-22T03:56:11;97427.88;;;22.30;40.27
83264;BME280;73156;50.988;11.034;2023-12-22T03:58:37;97412.03;;;22.25;40.31
83264;BME280;73156;50.988;11.034;2023-12-22T04:01:02;97437.44;;;22.37;39.96
83264;BME280;73156;50.988;11.034;2023-12-22T04:03:28;97412.69;;;22.31;40.04
83264;BME280;73156;50.988;11.034;2023-12-22T04:05:53;97416.66;;;22.30;40.08
83264;BME280;73156;50.988;11.034;2023-12-22T04:08:18;97413.66;;;22.26;40.41
83264;BME280;73156;50.988;11.034;2023-12-22T04:10:45;97426.19;;;22.20;40.47
83264;BME280;73156;50.988;11.034;2023-12-22T04:13:11;97422.22;;;22.21;40.28
83264;BME280;73156;50.988;11.034;2023-12-22T04:15:36;97422.53;;;22.20;40.46
83264;BME280;73156;50.988;11.034;2023-12-22T04:18:02;97419.16;;;22.31;40.04
83264;BME280;73156;50.988;11.034;2023-12-22T04:20:27;97413.19;;;22.24;40.03
83264;BME280;73156;50.988;11.034;2023-12-22T04:22:52;97411.16;;;22.16;40.25
83264;BME280;73156;50.988;11.034;2023-12-22T04:25:18;97413.06;;;22.07;40.41
83264;BME280;73156;50.988;11.034;2023-12-22T04:27:43;97407.09;;;22.31;39.98
83264;BME280;73156;50.988;11.034;2023-12-22T04:30:09;97418.03;;;22.10;40.46
83264;BME280;73156;50.988;11.034;2023-12-22T04:32:34;97414.13;;;22.20;40.20
83264;BME280;73156;50.988;11.034;2023-12-22T04:34:59;97413.06;;;22.07;40.25
83264;BME280;73156;50.988;11.034;2023-12-22T04:37:25;97417.34;;;22.05;40.49
83264;BME280;73156;50.988;11.034;2023-12-22T04:39:50;97392.97;;;22.05;40.09
83264;BME280;73156;50.988;11.034;2023-12-22T04:42:15;97413.28;;;22.11;40.04
83264;BME280;73156;50.988;11.034;2023-12-22T04:44:40;97403.13;;;22.23;39.41
83264;BME280;73156;50.988;11.034;2023-12-22T04:47:06;97409.59;;;22.32;39.68
83264;BME280;73156;50.988;11.034;2023-12-22T04:49:31;97413.28;;;22.19;40.00
83264;BME280;73156;50.988;11.034;2023-12-22T04:51:56;97424.66;;;22.14;40.03
83264;BME280;73156;50.988;11.034;2023-12-22T04:54:22;97421.00;;;22.14;40.05
83264;BME280;73156;50.988;11.034;2023-12-22T04:56:47;97436.63;;;22.37;39.88
83264;BME280;73156;50.988;11.034;2023-12-22T04:59:12;97437.56;;;22.24;39.85
83264;BME280;73156;50.988;11.034;2023-12-22T05:01:37;97439.56;;;22.32;39.80
83264;BME280;73156;50.988;11.034;2023-12-22T05:04:03;97408.31;;;22.08;40.11
83264;BME280;73156;50.988;11.034;2023-12-22T05:06:28;97416.63;;;22.21;39.88
83264;BME280;73156;50.988;11.034;2023-12-22T05:08:56;97407.22;;;22.17;39.77
83264;BME280;73156;50.988;11.034;2023-12-22T05:11:22;97411.66;;;22.18;39.70
83264;BME280;73156;50.988;11.034;2023-12-22T05:13:47;97393.53;;;22.16;39.79
83264;BME280;73156;50.988;11.034;2023-12-22T05:16:13;97385.06;;;22.07;40.02
83264;BME280;73156;50.988;11.034;2023-12-22T05:18:39;97391.03;;;22.14;40.32
83264;BME280;73156;50.988;11.034;2023-12-22T05:21:04;97388.50;;;22.04;40.25
83264;BME280;73156;50.988;11.034;2023-12-22T05:23:30;97393.41;;;21.99;40.33
83264;BME280;73156;50.988;11.034;2023-12-22T05:25:55;97387.69;;;22.04;40.12
83264;BME280;73156;50.988;11.034;2023-12-22T05:28:20;97397.22;;;21.94;40.45
83264;BME280;73156;50.988;11.034;2023-12-22T05:30:45;97388.44;;;21.87;40.45
83264;BME280;73156;50.988;11.034;2023-12-22T05:33:12;97382.06;;;21.95;40.37
83264;BME280;73156;50.988;11.034;2023-12-22T05:35:37;97402.72;;;22.08;40.12
83264;BME280;73156;50.988;11.034;2023-12-22T05:38:02;97384.38;;;22.02;40.05
83264;BME280;73156;50.988;11.034;2023-12-22T05:40:28;97311.97;;;21.56;40.23
83264;BME280;73156;50.988;11.034;2023-12-22T05:42:53;97373.88;;;22.07;39.96
83264;BME280;73156;50.988;11.034;2023-12-22T05:45:18;97372.03;;;22.03;40.15
83264;BME280;73156;50.988;11.034;2023-12-22T05:47:44;97371.34;;;21.97;40.12
83264;BME280;73156;50.988;11.034;2023-12-22T05:50:09;97374.97;;;21.98;40.21
83264;BME280;73156;50.988;11.034;2023-12-22T05:52:36;97363.59;;;21.94;40.27
83264;BME280;73156;50.988;11.034;2023-12-22T05:55:01;97356.81;;;21.87;40.33
83264;BME280;73156;50.988;11.034;2023-12-22T05:57:26;97372.19;;;21.98;40.18
83264;BME280;73156;50.988;11.034;2023-12-22T05:59:51;97379.41;;;21.99;40.08
83264;BME280;73156;50.988;11.034;2023-12-22T06:02:17;97379.25;;;21.95;40.35
83264;BME280;73156;50.988;11.034;2023-12-22T06:04:42;97366.63;;;22.06;39.55
83264;BME280;73156;50.988;11.034;2023-12-22T06:07:09;97323.69;;;21.80;39.94
83264;BME280;73156;50.988;11.034;2023-12-22T06:09:34;97348.63;;;21.99;40.00
83264;BME280;73156;50.988;11.034;2023-12-22T06:11:59;97365.31;;;22.04;39.73
83264;BME280;73156;50.988;11.034;2023-12-22T06:14:25;97363.13;;;22.01;39.88
83264;BME280;73156;50.988;11.034;2023-12-22T06:16:50;97344.34;;;21.93;39.81
83264;BME280;73156;50.988;11.034;2023-12-22T06:19:16;97358.28;;;22.15;39.58
83264;BME280;73156;50.988;11.034;2023-12-22T06:21:41;97353.25;;;22.03;39.65
83264;BME280;73156;50.988;11.034;2023-12-22T06:24:07;97357.59;;;22.09;39.56
83264;BME280;73156;50.988;11.034;2023-12-22T06:26:33;97335.94;;;21.93;39.75
83264;BME280;73156;50.988;11.034;2023-12-22T06:28:58;97358.88;;;22.03;39.67
83264;BME280;73156;50.988;11.034;2023-12-22T06:31:23;97373.28;;;22.19;39.27
83264;BME280;73156;50.988;11.034;2023-12-22T06:33:50;97371.53;;;22.01;39.27
83264;BME280;73156;50.988;11.034;2023-12-22T06:36:23;97362.81;;;22.02;39.56
83264;BME280;73156;50.988;11.034;2023-12-22T06:38:52;97392.66;;;22.07;39.40
83264;BME280;73156;50.988;11.034;2023-12-22T06:41:28;97410.53;;;21.97;39.89
83264;BME280;73156;50.988;11.034;2023-12-22T06:43:55;97405.28;;;21.96;39.61
83264;BME280;73156;50.988;11.034;2023-12-22T06:46:21;97426.47;;;21.88;40.23
83264;BME280;73156;50.988;11.034;2023-12-22T06:48:47;97418.63;;;21.99;39.75
83264;BME280;73156;50.988;11.034;2023-12-22T06:51:19;97430.66;;;21.99;39.88
83264;BME280;73156;50.988;11.034;2023-12-22T06:53:46;97431.03;;;22.06;39.74
83264;BME280;73156;50.988;11.034;2023-12-22T06:56:31;97429.44;;;21.92;39.65
83264;BME280;73156;50.988;11.034;2023-12-22T06:58:57;97430.97;;;21.98;39.56
83264;BME280;73156;50.988;11.034;2023-12-22T07:01:31;97419.41;;;21.91;39.89
83264;BME280;73156;50.988;11.034;2023-12-22T07:03:56;97446.59;;;21.90;39.70
83264;BME280;73156;50.988;11.034;2023-12-22T07:06:23;97425.00;;;21.91;39.06
83264;BME280;73156;50.988;11.034;2023-12-22T07:11:24;97455.34;;;21.97;39.44
83264;BME280;73156;50.988;11.034;2023-12-22T07:13:49;97451.00;;;22.13;39.14
83264;BME280;73156;50.988;11.034;2023-12-22T07:16:16;97467.44;;;22.06;39.07
83264;BME280;73156;50.988;11.034;2023-12-22T07:18:41;97461.28;;;21.96;39.47
83264;BME280;73156;50.988;11.034;2023-12-22T07:21:06;97453.69;;;21.96;39.27
83264;BME280;73156;50.988;11.034;2023-12-22T07:23:32;97478.13;;;22.04;39.70
83264;BME280;73156;50.988;11.034;2023-12-22T07:25:58;97483.94;;;22.08;39.40
83264;BME280;73156;50.988;11.034;2023-12-22T07:28:23;97495.13;;;21.86;39.38
83264;BME280;73156;50.988;11.034;2023-12-22T07:30:48;97487.28;;;21.96;39.17
83264;BME280;73156;50.988;11.034;2023-12-22T07:33:13;97488.75;;;21.94;39.58
83264;BME280;73156;50.988;11.034;2023-12-22T07:35:39;97492.72;;;21.93;39.52
83264;BME280;73156;50.988;11.034;2023-12-22T07:38:04;97473.63;;;21.95;38.96
83264;BME280;73156;50.988;11.034;2023-12-22T07:40:29;97468.00;;;21.95;39.28
83264;BME280;73156;50.988;11.034;2023-12-22T07:42:57;97467.63;;;22.10;38.99
83264;BME280;73156;50.988;11.034;2023-12-22T07:45:23;97457.13;;;21.93;39.17
83264;BME280;73156;50.988;11.034;2023-12-22T07:47:48;97469.22;;;22.02;39.47
83264;BME280;73156;50.988;11.034;2023-12-22T07:50:14;97474.00;;;22.02;39.52
83264;BME280;73156;50.988;11.034;2023-12-22T07:52:39;97459.94;;;21.93;39.47
83264;BME280;73156;50.988;11.034;2023-12-22T07:55:08;97474.13;;;22.19;39.40
83264;BME280;73156;50.988;11.034;2023-12-22T07:57:37;97475.50;;;22.30;39.23
83264;BME280;73156;50.988;11.034;2023-12-22T08:00:04;97489.22;;;22.40;39.36
83264;BME280;73156;50.988;11.034;2023-12-22T08:02:29;97478.19;;;22.43;39.55
83264;BME280;73156;50.988;11.034;2023-12-22T08:04:55;97506.53;;;22.42;39.47
83264;BME280;73156;50.988;11.034;2023-12-22T08:07:20;97482.97;;;22.43;39.73
83264;BME280;73156;50.988;11.034;2023-12-22T08:09:46;97496.59;;;22.36;39.65
83264;BME280;73156;50.988;11.034;2023-12-22T08:12:11;97512.72;;;22.30;39.91
83264;BME280;73156;50.988;11.034;2023-12-22T08:14:36;97502.66;;;22.29;39.81
83264;BME280;73156;50.988;11.034;2023-12-22T08:17:01;97507.91;;;22.22;40.01
83264;BME280;73156;50.988;11.034;2023-12-22T08:19:27;97514.28;;;22.14;40.05
83264;BME280;73156;50.988;11.034;2023-12-22T08:21:53;97522.50;;;22.11;40.29
83264;BME280;73156;50.988;11.034;2023-12-22T08:24:19;97528.53;;;22.04;40.23
83264;BME280;73156;50.988;11.034;2023-12-22T08:26:44;97530.38;;;22.09;40.38
83264;BME280;73156;50.988;11.034;2023-12-22T08:29:09;97544.69;;;22.07;40.35
83264;BME280;73156;50.988;11.034;2023-12-22T08:31:34;97550.50;;;22.11;40.09
83264;BME280;73156;50.988;11.034;2023-12-22T08:34:00;97545.84;;;22.06;40.02
83264;BME280;73156;50.988;11.034;2023-12-22T08:36:25;97560.03;;;22.10;40.25
83264;BME280;73156;50.988;11.034;2023-12-22T08:38:50;97562.34;;;22.08;40.41
83264;BME280;73156;50.988;11.034;2023-12-22T08:41:16;97552.09;;;22.03;40.29
83264;BME280;73156;50.988;11.034;2023-12-22T08:43:41;97547.88;;;21.92;40.46
83264;BME280;73156;50.988;11.034;2023-12-22T08:46:07;97531.72;;;21.89;40.64
83264;BME280;73156;50.988;11.034;2023-12-22T08:48:34;97551.94;;;21.86;40.69
83264;BME280;73156;50.988;11.034;2023-12-22T08:51:00;97538.59;;;21.83;40.58
83264;BME280;73156;50.988;11.034;2023-12-22T08:53:25;97552.78;;;21.87;40.71
83264;BME280;73156;50.988;11.034;2023-12-22T08:55:50;97564.72;;;21.79;40.87
83264;BME280;73156;50.988;11.034;2023-12-22T08:58:16;97567.28;;;21.89;40.79
83264;BME280;73156;50.988;11.034;2023-12-22T09:00:41;97557.44;;;21.91;40.64
83264;BME280;73156;50.988;11.034;2023-12-22T09:03:06;97577.59;;;22.02;40.79
83264;BME280;73156;50.988;11.034;2023-12-22T09:05:32;97580.53;;;21.97;40.45
83264;BME280;73156;50.988;11.034;2023-12-22T09:07:57;97580.16;;;22.12;40.45
83264;BME280;73156;50.988;11.034;2023-12-22T09:10:24;97579.00;;;22.13;40.01
83264;BME280;73156;50.988;11.034;2023-12-22T09:12:50;97585.69;;;22.03;40.37
83264;BME280;73156;50.988;11.034;2023-12-22T09:15:16;97569.25;;;21.88;40.36
83264;BME280;73156;50.988;11.034;2023-12-22T09:17:41;97600.84;;;22.02;40.33
83264;BME280;73156;50.988;11.034;2023-12-22T09:20:07;97613.44;;;21.91;40.62
83264;BME280;73156;50.988;11.034;2023-12-22T09:22:33;97598.91;;;21.89;40.59
83264;BME280;73156;50.988;11.034;2023-12-22T09:24:58;97594.53;;;21.97;40.57
83264;BME280;73156;50.988;11.034;2023-12-22T09:27:23;97600.75;;;21.94;40.47
83264;BME280;73156;50.988;11.034;2023-12-22T09:29:48;97604.81;;;21.88;40.36
83264;BME280;73156;50.988;11.034;2023-12-22T09:32:14;97604.28;;;21.99;40.36
83264;BME280;73156;50.988;11.034;2023-12-22T09:34:39;97594.84;;;21.95;40.37
83264;BME280;73156;50.988;11.034;2023-12-22T09:37:05;97609.69;;;21.96;40.40
83264;BME280;73156;50.988;11.034;2023-12-22T09:39:30;97609.47;;;21.92;40.38
83264;BME280;73156;50.988;11.034;2023-12-22T09:41:56;97614.63;;;21.99;40.44
83264;BME280;73156;50.988;11.034;2023-12-22T09:44:21;97609.19;;;22.16;40.09
83264;BME280;73156;50.988;11.034;2023-12-22T09:46:50;97605.63;;;22.24;39.84
83264;BME280;73156;50.988;11.034;2023-12-22T09:49:17;97597.84;;;22.21;39.98
83264;BME280;73156;50.988;11.034;2023-12-22T09:51:44;97604.16;;;22.26;39.91
83264;BME280;73156;50.988;11.034;2023-12-22T09:54:09;97612.94;;;22.33;39.87
83264;BME280;73156;50.988;11.034;2023-12-22T09:56:37;97606.72;;;22.36;39.58
83264;BME280;73156;50.988;11.034;2023-12-22T09:59:09;97613.00;;;22.42;39.40
83264;BME280;73156;50.988;11.034;2023-12-22T10:01:35;97610.69;;;22.58;39.53
83264;BME280;73156;50.988;11.034;2023-12-22T10:04:02;97621.22;;;22.52;39.31
83264;BME280;73156;50.988;11.034;2023-12-22T10:06:27;97609.53;;;22.59;39.11
83264;BME280;73156;50.988;11.034;2023-12-22T10:08:53;97614.75;;;22.52;39.55
83264;BME280;73156;50.988;11.034;2023-12-22T10:11:20;97608.66;;;22.50;39.85
83264;BME280;73156;50.988;11.034;2023-12-22T10:13:46;97610.81;;;22.52;39.74
83264;BME280;73156;50.988;11.034;2023-12-22T10:16:13;97595.78;;;22.48;39.36
83264;BME280;73156;50.988;11.034;2023-12-22T10:18:38;97602.75;;;22.51;40.22
83264;BME280;73156;50.988;11.034;2023-12-22T10:21:03;97594.69;;;22.58;39.52
83264;BME280;73156;50.988;11.034;2023-12-22T10:23:29;97620.06;;;22.53;39.71
83264;BME280;73156;50.988;11.034;2023-12-22T10:25:57;97609.16;;;22.52;39.90
83264;BME280;73156;50.988;11.034;2023-12-22T10:28:23;97626.28;;;22.50;39.84
83264;BME280;73156;50.988;11.034;2023-12-22T10:30:49;97611.84;;;22.57;39.40
83264;BME280;73156;50.988;11.034;2023-12-22T10:33:15;97620.88;;;22.54;39.65
83264;BME280;73156;50.988;11.034;2023-12-22T10:35:41;97595.84;;;22.57;39.63
83264;BME280;73156;50.988;11.034;2023-12-22T10:38:07;97591.94;;;22.44;39.88
83264;BME280;73156;50.988;11.034;2023-12-22T10:40:32;97589.13;;;22.44;39.79
83264;BME280;73156;50.988;11.034;2023-12-22T10:42:58;97589.97;;;22.45;39.78
83264;BME280;73156;50.988;11.034;2023-12-22T10:45:24;97580.22;;;22.42;39.81
83264;BME280;73156;50.988;11.034;2023-12-22T10:47:49;97599.31;;;22.40;40.04
83264;BME280;73156;50.988;11.034;2023-12-22T10:50:19;97576.09;;;22.40;39.86
83264;BME280;73156;50.988;11.034;2023-12-22T10:52:49;97588.94;;;22.41;39.89
83264;BME280;73156;50.988;11.034;2023-12-22T10:55:15;97592.22;;;22.34;39.97
83264;BME280;73156;50.988;11.034;2023-12-22T10:57:41;97577.03;;;22.35;40.10
83264;BME280;73156;50.988;11.034;2023-12-22T11:00:07;97575.34;;;22.26;40.13
83264;BME280;73156;50.988;11.034;2023-12-22T11:02:34;97589.72;;;22.33;40.21
83264;BME280;73156;50.988;11.034;2023-12-22T11:05:03;97595.66;;;22.31;39.97
83264;BME280;73156;50.988;11.034;2023-12-22T11:07:35;97604.06;;;22.31;40.41
83264;BME280;73156;50.988;11.034;2023-12-22T11:10:03;97581.00;;;22.34;40.08
83264;BME280;73156;50.988;11.034;2023-12-22T11:12:31;97580.66;;;22.36;40.10
83264;BME280;73156;50.988;11.034;2023-12-22T11:14:57;97562.41;;;22.38;39.83
83264;BME280;73156;50.988;11.034;2023-12-22T11:17:23;97548.41;;;22.47;39.66
83264;BME280;73156;50.988;11.034;2023-12-22T11:19:55;97543.53;;;22.52;39.69
83264;BME280;73156;50.988;11.034;2023-12-22T11:22:21;97554.50;;;22.63;39.39
83264;BME280;73156;50.988;11.034;2023-12-22T11:24:48;97548.72;;;22.59;39.48
83264;BME280;73156;50.988;11.034;2023-12-22T11:27:18;97523.16;;;22.61;39.39
83264;BME280;73156;50.988;11.034;2023-12-22T11:29:46;97526.47;;;22.63;39.58
83264;BME280;73156;50.988;11.034;2023-12-22T11:32:15;97523.19;;;22.47;39.64
83264;BME280;73156;50.988;11.034;2023-12-22T11:34:42;97506.63;;;22.51;39.54
83264;BME280;73156;50.988;11.034;2023-12-22T11:37:09;97503.81;;;22.51;39.85
83264;BME280;73156;50.988;11.034;2023-12-22T11:39:36;97489.41;;;22.43;39.62
83264;BME280;73156;50.988;11.034;2023-12-22T11:42:02;97491.19;;;22.39;40.00
83264;BME280;73156;50.988;11.034;2023-12-22T11:44:28;97504.75;;;22.46;39.99
83264;BME280;73156;50.988;11.034;2023-12-22T11:47:04;97494.69;;;22.45;39.71
83264;BME280;73156;50.988;11.034;2023-12-22T11:49:34;97486.44;;;22.40;40.06
83264;BME280;73156;50.988;11.034;2023-12-22T11:52:17;97481.72;;;22.49;39.85
83264;BME280;73156;50.988;11.034;2023-12-22T11:54:45;97483.25;;;22.55;39.49
83264;BME280;73156;50.988;11.034;2023-12-22T11:57:32;97443.00;;;22.51;39.74
83264;BME280;73156;50.988;11.034;2023-12-22T12:02:34;97444.44;;;22.48;39.73
83264;BME280;73156;50.988;11.034;2023-12-22T12:05:01;97452.41;;;22.55;40.00
83264;BME280;73156;50.988;11.034;2023-12-22T12:10:10;97454.22;;;22.51;39.43
83264;BME280;73156;50.988;11.034;2023-12-22T12:12:36;97454.22;;;22.51;39.54
83264;BME280;73156;50.988;11.034;2023-12-22T12:15:17;97457.69;;;22.57;39.55
83264;BME280;73156;50.988;11.034;2023-12-22T12:17:43;97443.69;;;22.57;39.38
83264;BME280;73156;50.988;11.034;2023-12-22T12:20:10;97448.78;;;22.55;39.63
83264;BME280;73156;50.988;11.034;2023-12-22T12:22:37;97455.53;;;22.54;39.67
83264;BME280;73156;50.988;11.034;2023-12-22T12:25:07;97444.97;;;22.51;39.30
83264;BME280;73156;50.988;11.034;2023-12-22T12:27:35;97440.53;;;22.58;39.43
83264;BME280;73156;50.988;11.034;2023-12-22T12:30:07;97447.50;;;22.61;39.28
83264;BME280;73156;50.988;11.034;2023-12-22T12:32:35;97448.94;;;22.58;39.36
83264;BME280;73156;50.988;11.034;2023-12-22T12:35:00;97429.19;;;22.63;39.53
83264;BME280;73156;50.988;11.034;2023-12-22T12:37:26;97447.00;;;22.67;39.44
83264;BME280;73156;50.988;11.034;2023-12-22T12:39:54;97446.09;;;22.89;38.92
83264;BME280;73156;50.988;11.034;2023-12-22T12:42:24;97465.53;;;22.85;38.96
83264;BME280;73156;50.988;11.034;2023-12-22T12:44:52;97468.50;;;22.89;39.16
83264;BME280;73156;50.988;11.034;2023-12-22T12:47:17;97476.59;;;22.90;38.89
83264;BME280;73156;50.988;11.034;2023-12-22T12:49:43;97445.06;;;22.76;39.01
83264;BME280;73156;50.988;11.034;2023-12-22T12:52:14;97457.09;;;22.77;39.29
83264;BME280;73156;50.988;11.034;2023-12-22T12:54:40;97446.72;;;22.77;39.39